Terminal Aerodrome Forecast
Issued by NWS

Home | Current Version | Previous Version | Text Only | Print | Product List | Glossary On
Versions: 1 2 3 4 5 6 7 8 9 10 11 12 13 14 15 16 17 18
196
FTUS42 KMLB 252339
TAFISM
TAF
KISM 252339Z 2600/2624 28007KT P6SM FEW070 FEW250
     FM260800 31004KT P6SM SKC
     FM261600 28006KT P6SM SKC=

USA.gov is the U.S. government's official web portal to all federal, state and local government web resources and services.